CheckWX is a tool to help pilots better visualize weather data.  It is not intended as a substitute for an official pre-flight weather briefing.

12:36:41 UTC

KTCL METAR
Tuscaloosa Regional Airport
Tuscaloosa, Alabama, USA
Current

44 mins ago

KTCL 181153Z AUTO 35006KT 10SM OVC017 07/03 A3019 RMK AO2 SLP223 60012 70034 T00670033 10106 20067 53036
Observed
Feb-18 @ 11:53 UTC
Wind
  • 350° at 6 KTS
Visibility
10 SM
Flight Rules
MVFR
Cloud Levels
  • Overcast at 1,700' AGL
Temperature
C / 45°F
Dewpoint
C / 37°F
Humidity
76%
Altimeter
30.19" Hg
Pressure
1022.3 hPa
Previous

2 hours ago

KTCL 181053Z AUTO 34007KT 290V360 10SM OVC020 07/04 A3015 RMK AO2 SLP209 T00720039
Observed
Feb-18 @ 10:53 UTC
Wind
  • 340° at 7 KTS
Visibility
10 SM
Flight Rules
MVFR
Cloud Levels
  • Overcast at 2,000' AGL
Temperature
C / 45°F
Dewpoint
C / 39°F
Humidity
81%
Altimeter
30.15" Hg
Pressure
1020.9 hPa
Previous

3 hours ago

KTCL 180953Z AUTO 34007KT 10SM OVC018 08/04 A3011 RMK AO2 SLP195 T00780044
Observed
Feb-18 @ 09:53 UTC
Wind
  • 340° at 7 KTS
Visibility
10 SM
Flight Rules
MVFR
Cloud Levels
  • Overcast at 1,800' AGL
Temperature
C / 46°F
Dewpoint
C / 39°F
Humidity
76%
Altimeter
30.11" Hg
Pressure
1019.5 hPa